Time;durP1;ratioP1;P1;durP2;ratioP2;P2;SDS_P1;SDS_P2;PMS_P1;PMS_P2;Temp;Humidity;BMP_temperature;BMP_pressure;BME280_temperature;BME280_humidity;BME280_pressure;Samples;Min_cycle;Max_cycle;Signal;HPM_P1;HPM_P2
2023/10/19 00:00:36;;;;;;;8.93;6.47;;;;;;;8.81;100.00;63861.34;5069565;28;20223;-55
2023/10/19 00:03:02;;;;;;;11.40;7.20;;;;;;;8.62;100.00;63843.13;5070684;28;20288;-55
2023/10/19 00:05:32;;;;;;;9.10;6.87;;;;;;;8.63;100.00;63841.69;5070880;28;20196;-54
2023/10/19 00:07:59;;;;;;;8.97;6.60;;;;;;;8.56;100.00;63836.56;5070661;28;20303;-54
2023/10/19 00:10:26;;;;;;;9.03;6.90;;;;;;;8.62;100.00;63841.16;5070855;28;20212;-54
2023/10/19 00:12:59;;;;;;;9.13;6.90;;;;;;;8.67;100.00;63848.56;5068875;28;20288;-54
2023/10/19 00:15:30;;;;;;;11.20;6.13;;;;;;;8.60;100.00;63835.91;5069561;28;20204;-54
2023/10/19 00:17:56;;;;;;;9.50;7.17;;;;;;;8.65;100.00;63846.38;5068433;28;20274;-55
2023/10/19 00:20:49;;;;;;;11.63;6.77;;;;;;;8.78;100.00;63860.59;5070652;28;20211;-54
2023/10/19 00:23:18;;;;;;;10.10;6.60;;;;;;;8.83;100.00;63861.03;5070729;28;20205;-55
2023/10/19 00:25:49;;;;;;;8.23;6.40;;;;;;;8.79;100.00;63859.16;5067922;28;20220;-55
2023/10/19 00:28:17;;;;;;;7.43;6.33;;;;;;;8.74;100.00;63851.75;5068564;28;20228;-56
2023/10/19 00:30:43;;;;;;;8.83;6.40;;;;;;;8.71;100.00;63850.44;5070708;28;20227;-54
2023/10/19 00:33:16;;;;;;;8.67;6.20;;;;;;;8.71;100.00;63850.44;5070729;28;20284;-54
2023/10/19 00:35:56;;;;;;;8.23;6.10;;;;;;;8.63;100.00;63844.19;5069358;28;20216;-54
2023/10/19 00:40:53;;;;;;;7.53;6.23;;;;;;;8.68;100.00;63847.16;5070689;28;20213;-55
2023/10/19 00:43:33;;;;;;;7.90;5.80;;;;;;;8.70;100.00;63851.84;5070519;28;20291;-54
2023/10/19 00:48:45;;;;;;;8.77;6.03;;;;;;;8.62;100.00;63843.66;5070530;28;20204;-55
2023/10/19 00:54:09;;;;;;;7.53;5.83;;;;;;;8.62;100.00;63843.13;5054117;28;20270;-56
2023/10/19 00:56:35;;;;;;;9.80;6.30;;;;;;;8.60;100.00;63838.97;5070511;28;20285;-56
2023/10/19 00:59:14;;;;;;;6.57;5.67;;;;;;;8.48;100.00;63828.91;5070288;28;20200;-54
2023/10/19 01:01:44;;;;;;;9.23;6.73;;;;;;;8.48;100.00;63827.81;5070580;28;20211;-55
2023/10/19 01:04:14;;;;;;;8.00;5.93;;;;;;;8.63;100.00;63842.25;5070246;28;20224;-55
2023/10/19 01:06:44;;;;;;;8.07;5.93;;;;;;;8.61;100.00;63842.56;5070216;28;20274;-55
2023/10/19 01:09:14;;;;;;;8.27;6.37;;;;;;;8.56;100.00;63837.13;5070512;28;20292;-56
2023/10/19 01:11:52;;;;;;;10.43;6.67;;;;;;;8.73;100.00;63852.63;5070864;28;20238;-56
2023/10/19 01:14:20;;;;;;;7.70;6.13;;;;;;;8.55;100.00;63836.00;5053806;28;20204;-56
2023/10/19 01:16:46;;;;;;;8.03;5.93;;;;;;;8.74;100.00;63856.22;5070246;28;20221;-55
2023/10/19 01:19:11;;;;;;;8.80;6.53;;;;;;;8.89;100.00;63870.09;5070364;28;20197;-55
2023/10/19 01:21:37;;;;;;;9.67;6.20;;;;;;;8.83;100.00;63866.59;5070225;28;20216;-58
2023/10/19 01:24:12;;;;;;;7.43;6.27;;;;;;;8.83;100.00;63861.56;5070049;28;20201;-58
2023/10/19 01:26:38;;;;;;;9.93;6.23;;;;;;;8.93;100.00;63877.53;5069905;28;20697;-53
2023/10/19 01:29:14;;;;;;;9.07;7.60;;;;;;;8.97;100.00;63881.91;5070796;28;20264;-53
2023/10/19 01:31:55;;;;;;;7.00;5.83;;;;;;;8.76;100.00;63858.97;5073912;28;20298;-53
2023/10/19 01:34:22;;;;;;;7.03;5.50;;;;;;;8.71;100.00;63850.97;5073451;28;20230;-53
2023/10/19 01:36:50;;;;;;;8.03;5.83;;;;;;;8.74;100.00;63859.28;5073546;28;20212;-52
2023/10/19 01:39:18;;;;;;;6.83;5.27;;;;;;;8.70;100.00;63847.38;5073516;28;20216;-53
2023/10/19 01:41:45;;;;;;;6.97;5.50;;;;;;;8.72;100.00;63854.03;5073500;28;20224;-57
2023/10/19 01:44:15;;;;;;;8.00;5.40;;;;;;;8.73;100.00;63855.69;5073224;28;20205;-55
2023/10/19 01:46:43;;;;;;;7.23;5.50;;;;;;;8.55;100.00;63835.47;5072193;28;20216;-55
2023/10/19 01:49:09;;;;;;;10.00;5.30;;;;;;;8.52;100.00;63832.75;5073300;28;20232;-53
2023/10/19 01:51:39;;;;;;;6.47;5.20;;;;;;;8.54;100.00;63834.94;5073068;28;20266;-56
2023/10/19 01:54:06;;;;;;;8.03;5.23;;;;;;;8.63;100.00;63841.69;5073297;28;20283;-53
2023/10/19 01:56:35;;;;;;;7.77;5.60;;;;;;;8.69;100.00;63848.25;5072983;28;20274;-53
2023/10/19 01:59:01;;;;;;;6.77;5.30;;;;;;;8.75;100.00;63855.34;5072991;28;20216;-53
2023/10/19 02:04:00;;;;;;;8.13;5.73;;;;;;;8.64;100.00;63845.31;5073125;28;20199;-52
2023/10/19 02:06:34;;;;;;;7.00;6.10;;;;;;;8.64;100.00;63845.84;5073113;28;20267;-52
2023/10/19 02:09:17;;;;;;;9.27;6.33;;;;;;;8.61;100.00;63839.50;5073011;28;20246;-53
2023/10/19 02:11:47;;;;;;;7.13;5.80;;;;;;;8.79;100.00;63859.72;5071558;28;20805;-53
2023/10/19 02:14:14;;;;;;;7.37;5.93;;;;;;;8.81;100.00;63864.41;5071477;28;20266;-53
2023/10/19 02:16:44;;;;;;;7.10;5.40;;;;;;;8.92;100.00;63878.41;5073008;28;20220;-53
2023/10/19 02:19:10;;;;;;;8.90;6.00;;;;;;;8.98;100.00;63880.50;5072798;28;20221;-53
2023/10/19 02:21:42;;;;;;;7.63;6.03;;;;;;;9.02;100.00;63884.84;5072884;28;20220;-54
2023/10/19 02:24:09;;;;;;;7.30;6.50;;;;;;;9.02;100.00;63884.31;5072928;28;20311;-53
2023/10/19 02:26:37;;;;;;;9.23;6.77;;;;;;;8.98;100.00;63879.94;5072794;28;20220;-57
2023/10/19 02:29:07;;;;;;;9.57;7.07;;;;;;;9.03;100.00;63885.41;5072534;28;20433;-54
2023/10/19 02:31:37;;;;;;;9.97;6.67;;;;;;;9.06;100.00;63891.19;5071250;28;20224;-53
2023/10/19 02:34:04;;;;;;;7.63;6.10;;;;;;;9.09;100.00;63894.47;5072573;28;20204;-54
2023/10/19 02:36:30;;;;;;;7.77;5.90;;;;;;;9.03;100.00;63885.41;5072332;28;20232;-54
2023/10/19 02:39:04;;;;;;;10.57;6.87;;;;;;;9.04;100.00;63886.50;5072319;28;20197;-55
2023/10/19 02:41:29;;;;;;;8.90;6.77;;;;;;;9.23;100.00;63907.81;5071117;28;20217;-54
2023/10/19 02:46:34;;;;;;;11.90;6.90;;;;;;;8.89;100.00;63868.13;5072587;28;20220;-54
2023/10/19 02:49:09;;;;;;;14.27;7.17;;;;;;;8.91;100.00;63872.84;5071376;28;20283;-55
2023/10/19 02:51:34;;;;;;;9.10;6.50;;;;;;;8.80;100.00;63865.84;5072367;28;20784;-55
2023/10/19 02:54:02;;;;;;;9.17;6.00;;;;;;;8.79;100.00;63859.16;5072189;28;20279;-55
2023/10/19 02:56:29;;;;;;;8.43;6.37;;;;;;;8.82;100.00;63864.97;5072170;28;20216;-56
2023/10/19 02:59:01;;;;;;;10.90;6.47;;;;;;;8.89;100.00;63867.59;5072087;28;20201;-56
2023/10/19 03:01:31;;;;;;;8.77;6.30;;;;;;;8.79;100.00;63859.16;5072463;28;20217;-57
2023/10/19 03:04:00;;;;;;;10.73;6.83;;;;;;;8.70;100.00;63852.41;5072035;28;20212;-55
2023/10/19 03:06:31;;;;;;;10.53;7.37;;;;;;;8.58;100.00;63836.78;5072259;28;20220;-54
2023/10/19 03:09:31;;;;;;;13.23;7.47;;;;;;;8.46;100.00;63826.72;5072159;28;20199;-55
2023/10/19 03:11:52;;;;;;;12.20;8.10;;;;;;;8.42;100.00;63819.84;5069627;28;20235;-57
2023/10/19 03:14:19;;;;;;;10.50;6.90;;;;;;;8.46;100.00;63824.22;5072001;28;20193;-55
2023/10/19 03:16:45;;;;;;;10.03;7.70;;;;;;;8.42;100.00;63819.84;5071921;28;20212;-56
2023/10/19 03:19:12;;;;;;;11.10;7.53;;;;;;;8.34;100.00;63813.09;5071932;28;20683;-55
2023/10/19 03:21:49;;;;;;;11.03;7.53;;;;;;;8.36;100.00;63815.81;5071680;28;20261;-54
2023/10/19 03:24:42;;;;;;;10.10;6.70;;;;;;;8.39;100.00;63816.56;5071679;28;20208;-53
2023/10/19 03:27:23;;;;;;;9.67;6.23;;;;;;;8.50;100.00;63830.00;5071544;28;20790;-58
2023/10/19 03:29:54;;;;;;;10.00;6.93;;;;;;;8.42;100.00;63819.84;5071710;28;20229;-54
2023/10/19 03:32:22;;;;;;;7.30;5.50;;;;;;;8.16;100.00;63790.91;5070336;28;20228;-56
2023/10/19 03:34:49;;;;;;;8.83;5.07;;;;;;;8.06;100.00;63782.50;5071574;28;20689;-54
2023/10/19 03:37:15;;;;;;;5.83;4.87;;;;;;;7.97;100.00;63773.22;5071366;28;20225;-53
2023/10/19 03:39:45;;;;;;;6.50;4.63;;;;;;;7.87;100.00;63762.28;5071571;28;20200;-54
2023/10/19 03:42:13;;;;;;;8.23;4.70;;;;;;;7.74;100.00;63750.59;5071771;28;20728;-53
2023/10/19 03:44:53;;;;;;;5.97;5.03;;;;;;;7.68;100.00;63741.00;5071435;28;20212;-54
2023/10/19 03:47:19;;;;;;;7.57;5.20;;;;;;;7.56;100.00;63725.94;5071554;28;20254;-55
2023/10/19 03:49:46;;;;;;;7.40;5.40;;;;;;;7.57;100.00;63727.56;5071198;28;20675;-53
2023/10/19 03:54:39;;;;;;;6.33;4.73;;;;;;;7.49;100.00;63721.34;5071307;28;20192;-54
2023/10/19 03:57:22;;;;;;;5.70;4.37;;;;;;;7.52;100.00;63726.59;5071127;28;20285;-53
2023/10/19 03:59:57;;;;;;;6.33;4.60;;;;;;;7.55;100.00;63727.38;5071217;28;20284;-52
2023/10/19 04:02:25;;;;;;;6.90;5.17;;;;;;;7.45;100.00;63716.47;5054253;28;20675;-54
2023/10/19 04:04:52;;;;;;;8.40;6.07;;;;;;;7.52;100.00;63724.09;5069749;28;20211;-54
2023/10/19 04:07:21;;;;;;;9.27;5.33;;;;;;;7.43;100.00;63714.28;5070684;28;20228;-54
2023/10/19 04:09:59;;;;;;;6.40;4.40;;;;;;;7.50;100.00;63719.41;5070974;28;20221;-54
2023/10/19 04:12:31;;;;;;;6.17;4.70;;;;;;;7.59;100.00;63732.25;5054449;28;20208;-53
2023/10/19 04:14:57;;;;;;;5.83;4.27;;;;;;;7.54;100.00;63723.75;5070969;28;20280;-54
2023/10/19 04:17:23;;;;;;;9.67;5.30;;;;;;;7.56;100.00;63728.44;5070580;28;20753;-55
2023/10/19 04:19:52;;;;;;;10.43;6.63;;;;;;;7.66;100.00;63736.84;5070663;28;20249;-54
2023/10/19 04:22:24;;;;;;;5.83;4.93;;;;;;;7.57;100.00;63729.56;5070878;28;20242;-54
2023/10/19 04:24:53;;;;;;;9.03;4.80;;;;;;;7.61;100.00;63731.94;5071079;28;20208;-53
2023/10/19 04:27:22;;;;;;;22.73;12.73;;;;;;;7.54;100.00;63726.25;5070655;28;20221;-53
2023/10/19 04:29:49;;;;;;;6.87;5.23;;;;;;;7.49;100.00;63720.81;5070539;28;20289;-59
2023/10/19 04:32:23;;;;;;;10.47;7.23;;;;;;;7.70;100.00;63743.72;5071138;28;20829;-52
2023/10/19 04:34:48;;;;;;;5.33;4.07;;;;;;;7.73;100.00;63747.00;5069456;28;20201;-52
2023/10/19 04:37:18;;;;;;;8.33;5.53;;;;;;;7.58;100.00;63731.19;5070835;28;20231;-56
2023/10/19 04:39:45;;;;;;;6.43;4.20;;;;;;;7.58;100.00;63733.13;5070578;28;20212;-56
2023/10/19 04:42:10;;;;;;;4.80;3.70;;;;;;;7.48;100.00;63717.75;5070771;28;20216;-53
2023/10/19 04:44:36;;;;;;;6.60;4.37;;;;;;;7.47;100.00;63718.63;5070598;28;20234;-56
2023/10/19 04:47:01;;;;;;;4.17;3.43;;;;;;;7.45;100.00;63716.47;5069146;28;20290;-55
2023/10/19 04:49:28;;;;;;;5.87;4.10;;;;;;;7.54;100.00;63728.78;5069307;28;20252;-55
2023/10/19 04:51:53;;;;;;;6.17;4.47;;;;;;;7.53;100.00;63723.22;5070286;28;20216;-56
2023/10/19 04:54:19;;;;;;;5.07;3.90;;;;;;;7.53;100.00;63722.69;5070425;28;20579;-54
2023/10/19 04:56:44;;;;;;;5.63;4.17;;;;;;;7.64;100.00;63735.22;5069773;28;20713;-54
2023/10/19 04:59:10;;;;;;;4.10;3.47;;;;;;;7.66;100.00;63739.38;5070217;28;20196;-54
2023/10/19 05:01:35;;;;;;;4.73;3.23;;;;;;;7.50;100.00;63721.91;5070620;28;20614;-54
2023/10/19 05:04:01;;;;;;;5.97;3.50;;;;;;;7.48;100.00;63717.75;5071982;28;20204;-54
2023/10/19 05:06:27;;;;;;;5.87;3.63;;;;;;;7.55;100.00;63725.38;5074035;28;20236;-54
2023/10/19 05:08:52;;;;;;;4.77;3.43;;;;;;;7.57;100.00;63727.56;5074025;28;20595;-54
2023/10/19 05:11:19;;;;;;;4.57;3.30;;;;;;;7.50;100.00;63721.91;5073843;28;20639;-53
2023/10/19 05:13:44;;;;;;;5.00;3.83;;;;;;;7.43;100.00;63711.78;5072526;28;20690;-55
2023/10/19 05:16:11;;;;;;;6.00;3.43;;;;;;;7.38;100.00;63706.31;5072547;28;20238;-55
2023/10/19 05:18:36;;;;;;;7.37;3.70;;;;;;;7.30;100.00;63698.13;5073922;28;20250;-59
2023/10/19 05:21:02;;;;;;;4.97;3.87;;;;;;;7.30;100.00;63697.56;5073978;28;20205;-54
2023/10/19 05:23:29;;;;;;;7.63;3.63;;;;;;;7.30;100.00;63697.56;5055592;28;20243;-54
2023/10/19 05:26:04;;;;;;;5.87;3.80;;;;;;;7.40;100.00;63711.53;5072094;28;20213;-55
2023/10/19 05:28:31;;;;;;;8.50;3.67;;;;;;;7.46;100.00;63712.53;5073452;28;20295;-54
2023/10/19 05:30:58;;;;;;;5.70;3.70;;;;;;;7.43;100.00;63714.28;5073638;28;20200;-55
2023/10/19 05:33:24;;;;;;;4.90;3.90;;;;;;;7.41;100.00;63712.63;5073279;28;20219;-55
2023/10/19 05:35:50;;;;;;;6.13;3.80;;;;;;;7.42;100.00;63715.69;5073590;28;20201;-53
2023/10/19 05:38:19;;;;;;;4.70;3.17;;;;;;;7.45;100.00;63714.47;5071505;28;20213;-54
2023/10/19 05:40:45;;;;;;;7.23;3.80;;;;;;;7.59;100.00;63729.22;5071725;28;20287;-54
2023/10/19 05:43:11;;;;;;;6.37;4.20;;;;;;;7.63;100.00;63733.59;5071813;28;20303;-55
2023/10/19 05:45:40;;;;;;;6.50;3.77;;;;;;;7.79;100.00;63753.56;5073408;28;20212;-54
2023/10/19 05:48:09;;;;;;;4.77;3.80;;;;;;;7.87;100.00;63762.28;5073106;28;20220;-54
2023/10/19 05:50:35;;;;;;;8.60;4.20;;;;;;;7.96;100.00;63771.56;5073272;28;20231;-55
2023/10/19 05:53:05;;;;;;;4.47;3.70;;;;;;;8.23;100.00;63799.09;5073092;28;20238;-54
2023/10/19 05:55:31;;;;;;;6.23;4.50;;;;;;;8.23;100.00;63801.59;5072864;28;20659;-53
2023/10/19 05:57:57;;;;;;;4.80;3.73;;;;;;;8.26;100.00;63804.34;5071325;28;20219;-54
2023/10/19 06:00:25;;;;;;;5.23;3.70;;;;;;;8.34;100.00;63810.56;5070853;28;20583;-54
2023/10/19 06:02:52;;;;;;;7.13;4.23;;;;;;;8.55;100.00;63835.47;5069480;28;20274;-54
2023/10/19 06:05:19;;;;;;;8.67;4.00;;;;;;;8.55;100.00;63833.50;5069593;28;20687;-58
2023/10/19 06:07:48;;;;;;;5.20;3.57;;;;;;;8.64;100.00;63842.78;5072124;28;20295;-54
2023/10/19 06:10:20;;;;;;;5.73;3.70;;;;;;;8.81;100.00;63861.34;5072960;28;20287;-54
2023/10/19 06:12:49;;;;;;;5.50;4.13;;;;;;;8.88;100.00;63869.00;5072895;28;20290;-54
2023/10/19 06:15:16;;;;;;;5.23;3.43;;;;;;;8.83;100.00;63864.09;5071140;28;20225;-55
2023/10/19 06:17:43;;;;;;;6.67;4.53;;;;;;;8.92;100.00;63873.94;5072811;28;20792;-54
2023/10/19 06:20:28;;;;;;;7.47;4.47;;;;;;;9.20;100.00;63906.50;5072572;28;20204;-54
2023/10/19 06:22:59;;;;;;;5.80;4.30;;;;;;;9.42;100.00;63930.53;5072691;28;20710;-54
2023/10/19 06:25:25;;;;;;;6.47;4.40;;;;;;;9.51;100.00;63937.88;5072840;28;20205;-54
2023/10/19 06:27:52;;;;;;;6.63;4.73;;;;;;;9.51;100.00;63940.41;5072727;28;20246;-53
2023/10/19 06:30:19;;;;;;;6.33;3.97;;;;;;;9.55;100.00;63941.69;5072490;28;20200;-54
2023/10/19 06:32:50;;;;;;;5.57;4.17;;;;;;;9.54;100.00;63941.16;5072411;28;20212;-53
2023/10/19 06:35:17;;;;;;;5.40;4.00;;;;;;;9.26;100.00;63910.53;5072729;28;20236;-54
2023/10/19 06:37:43;;;;;;;7.13;4.70;;;;;;;9.19;100.00;63900.91;5072604;28;20208;-54
2023/10/19 06:40:11;;;;;;;6.87;4.90;;;;;;;9.21;100.00;63908.13;5072442;28;20253;-53
2023/10/19 06:42:39;;;;;;;10.00;6.37;;;;;;;9.24;100.00;63908.91;5072306;28;20243;-54
2023/10/19 06:45:07;;;;;;;12.10;5.90;;;;;;;9.23;100.00;63909.78;5072389;28;20640;-55
2023/10/19 06:47:37;;;;;;;8.70;5.30;;;;;;;9.29;100.00;63913.81;5072323;28;20235;-54
2023/10/19 06:50:07;;;;;;;7.10;5.47;;;;;;;9.49;100.00;63940.72;5072476;28;20710;-53
2023/10/19 06:52:33;;;;;;;10.47;6.83;;;;;;;9.46;100.00;63934.91;5070949;28;20208;-53
2023/10/19 06:54:58;;;;;;;7.83;5.80;;;;;;;9.73;100.00;63961.94;5072377;28;20223;-54
2023/10/19 06:57:24;;;;;;;6.47;5.53;;;;;;;9.91;100.00;63981.63;5072086;28;20705;-54
2023/10/19 06:59:52;;;;;;;7.67;5.20;;;;;;;10.00;100.00;63990.91;5072176;28;20679;-54
2023/10/19 07:02:20;;;;;;;8.57;6.63;;;;;;;10.21;100.00;64018.38;5072138;28;20274;-55
2023/10/19 07:04:47;;;;;;;7.67;5.57;;;;;;;10.37;100.00;64030.88;5070815;28;20284;-54
2023/10/19 07:07:13;;;;;;;8.13;5.83;;;;;;;10.60;100.00;64056.59;5071902;28;20256;-55
2023/10/19 07:09:39;;;;;;;8.80;5.63;;;;;;;10.56;100.00;64049.16;5070681;28;20196;-54
2023/10/19 07:12:07;;;;;;;9.13;5.50;;;;;;;10.70;100.00;64064.47;5072507;28;20197;-53
2023/10/19 07:14:33;;;;;;;7.20;5.63;;;;;;;10.62;100.00;64058.78;5072262;28;20251;-57
2023/10/19 07:16:59;;;;;;;6.97;5.23;;;;;;;10.51;100.00;64051.22;5071679;28;20643;-54
2023/10/19 07:19:25;;;;;;;7.67;5.07;;;;;;;10.50;100.00;64045.09;5071994;28;20236;-54
2023/10/19 07:21:57;;;;;;;5.87;4.77;;;;;;;10.31;100.00;64024.31;5071930;28;20605;-54
2023/10/19 07:24:23;;;;;;;6.37;5.07;;;;;;;10.61;100.00;64060.19;5070900;28;20232;-54
2023/10/19 07:27:04;;;;;;;8.30;5.70;;;;;;;10.87;100.00;64086.16;5070556;28;20245;-53
2023/10/19 07:29:33;;;;;;;7.43;5.73;;;;;;;11.04;100.00;64106.75;5070363;28;20208;-54
2023/10/19 07:31:58;;;;;;;7.40;6.10;;;;;;;11.16;100.00;64117.34;5072013;28;20302;-53
2023/10/19 07:34:27;;;;;;;8.93;5.60;;;;;;;11.32;100.00;64134.88;5071517;28;20338;-54
2023/10/19 07:36:54;;;;;;;6.73;5.37;;;;;;;11.14;100.00;64117.69;5070606;28;20279;-53
2023/10/19 07:39:20;;;;;;;6.73;5.03;;;;;;;11.45;100.00;64144.06;5071634;28;20208;-54
2023/10/19 07:41:46;;;;;;;9.00;5.80;;;;;;;11.13;100.00;64116.06;5071680;28;20220;-55
2023/10/19 07:44:12;;;;;;;12.03;6.93;;;;;;;11.03;100.00;64103.09;5071536;28;20208;-55
2023/10/19 07:46:38;;;;;;;8.80;6.17;;;;;;;11.40;100.00;64143.09;5071464;28;20209;-54
2023/10/19 07:49:05;;;;;;;10.97;6.83;;;;;;;11.63;100.00;64168.31;5071358;28;20266;-53
2023/10/19 07:51:32;;;;;;;7.50;5.40;;;;;;;11.67;100.00;64172.69;5070331;28;20220;-55
2023/10/19 07:53:57;;;;;;;7.40;6.07;;;;;;;11.23;100.00;64125.00;5071287;28;20279;-54
2023/10/19 07:56:23;;;;;;;8.60;6.70;;;;;;;11.04;100.00;64103.66;5070046;28;20217;-53
2023/10/19 07:58:49;;;;;;;11.33;6.97;;;;;;;11.30;100.00;64132.13;5070007;28;20205;-55
2023/10/19 08:01:15;;;;;;;12.90;8.10;;;;;;;11.65;100.00;64168.53;5071226;28;20351;-54
2023/10/19 08:03:40;;;;;;;19.40;8.80;;;;;;;11.83;100.00;64190.25;5071051;28;20683;-54
2023/10/19 08:06:06;;;;;;;11.03;8.87;;;;;;;12.01;100.00;64211.94;5071218;28;20193;-54
2023/10/19 08:08:35;;;;;;;12.23;8.53;;;;;;;11.88;100.00;64195.16;5071202;28;20228;-55
2023/10/19 08:11:00;;;;;;;12.97;9.10;;;;;;;12.07;100.00;64219.06;5071176;28;20216;-53
2023/10/19 08:13:27;;;;;;;11.27;8.73;;;;;;;12.00;100.00;64205.81;5071023;28;20212;-56
2023/10/19 08:16:01;;;;;;;11.30;8.13;;;;;;;12.45;100.00;64260.72;5071175;28;20216;-54
2023/10/19 08:18:26;;;;;;;10.70;7.37;;;;;;;12.74;98.27;64286.38;5070841;28;20209;-53
2023/10/19 08:20:53;;;;;;;11.13;8.00;;;;;;;13.30;94.02;64352.91;5071193;28;20207;-54
2023/10/19 08:23:23;;;;;;;11.83;7.50;;;;;;;13.52;93.00;64376.50;5070900;28;20204;-53
2023/10/19 08:25:50;;;;;;;11.55;8.13;;;;;;;13.81;92.83;64403.28;5070736;28;20212;-53
2023/10/19 08:28:16;;;;;;;11.13;8.00;;;;;;;14.15;90.33;64443.16;5070652;28;20225;-53
2023/10/19 08:30:44;;;;;;;10.60;8.15;;;;;;;14.44;84.91;64472.50;5070808;28;20222;-53
2023/10/19 08:33:13;;;;;;;11.30;8.73;;;;;;;14.68;84.71;64501.44;5070943;28;20227;-53
2023/10/19 08:35:45;;;;;;;12.75;8.25;;;;;;;14.61;84.47;64493.72;5070691;28;20667;-53
2023/10/19 08:38:11;;;;;;;13.00;8.45;;;;;;;14.51;87.27;64482.19;5070394;28;20205;-54
2023/10/19 08:40:38;;;;;;;8.73;6.60;;;;;;;15.18;82.73;64553.28;5070749;28;20287;-52
2023/10/19 08:43:05;;;;;;;9.55;5.63;;;;;;;15.13;78.37;64545.81;5070689;28;20635;-52
2023/10/19 08:45:32;;;;;;;8.23;6.57;;;;;;;15.31;79.52;64567.03;5070672;28;20235;-52
2023/10/19 08:48:00;;;;;;;7.82;6.45;;;;;;;15.35;80.61;64571.44;5070348;28;20216;-53
2023/10/19 08:50:28;;;;;;;10.05;6.88;;;;;;;14.34;82.31;64464.06;5070372;28;20259;-53
2023/10/19 08:52:55;;;;;;;12.43;7.95;;;;;;;14.61;83.50;64493.72;5070243;28;20690;-53
2023/10/19 08:55:21;;;;;;;7.15;6.15;;;;;;;15.01;80.21;64534.59;5069063;28;20287;-53
2023/10/19 08:57:52;;;;;;;9.55;7.38;;;;;;;14.50;81.54;64479.09;5069027;28;20302;-53
2023/10/19 09:00:19;;;;;;;10.15;7.68;;;;;;;14.73;80.70;64504.38;5070413;28;20212;-52
2023/10/19 09:02:49;;;;;;;9.55;6.75;;;;;;;15.19;79.48;64554.38;5069151;28;20216;-56
2023/10/19 09:05:25;;;;;;;15.32;7.03;;;;;;;15.24;77.73;64562.44;5070436;28;20212;-55
2023/10/19 09:07:55;;;;;;;8.88;7.00;;;;;;;15.88;76.83;64632.28;5070209;28;20665;-58
2023/10/19 09:10:22;;;;;;;9.25;7.03;;;;;;;16.04;75.34;64649.38;5070356;28;20701;-58
2023/10/19 09:13:09;;;;;;;9.38;7.03;;;;;;;16.42;74.68;64689.19;5070174;28;20292;-56
2023/10/19 09:15:38;;;;;;;10.35;7.18;;;;;;;16.62;70.79;64710.69;5070394;28;20201;-56
2023/10/19 09:18:16;;;;;;;8.77;6.63;;;;;;;16.86;71.09;64739.66;5070022;28;20237;-55
2023/10/19 09:20:52;;;;;;;8.75;6.57;;;;;;;17.23;69.92;64782.41;5070221;28;20211;-60
2023/10/19 09:23:28;;;;;;;10.23;6.88;;;;;;;17.53;67.08;64810.94;5070023;28;20208;-56
2023/10/19 09:25:58;;;;;;;10.32;6.40;;;;;;;17.01;69.62;64755.63;5070026;28;20291;-57
2023/10/19 09:28:24;;;;;;;9.93;6.72;;;;;;;17.28;68.64;64782.81;5069792;28;20305;-55
2023/10/19 09:30:52;;;;;;;9.50;6.72;;;;;;;17.50;70.11;64807.63;5070118;28;20692;-56
2023/10/19 09:33:18;;;;;;;7.80;5.45;;;;;;;17.47;71.08;64803.75;5069816;28;20292;-55
2023/10/19 09:36:01;;;;;;;8.65;6.10;;;;;;;17.35;69.90;64791.06;5069992;28;20268;-54
2023/10/19 09:38:27;;;;;;;6.13;5.53;;;;;;;17.07;69.47;64759.69;5067703;28;20204;-55
2023/10/19 09:40:56;;;;;;;7.05;5.88;;;;;;;16.86;71.79;64739.66;5068145;28;20204;-56
2023/10/19 09:43:37;;;;;;;8.35;6.90;;;;;;;16.86;72.96;64739.66;5069777;28;20240;-55
2023/10/19 09:46:12;;;;;;;8.70;6.72;;;;;;;16.63;74.75;64712.34;5069752;28;20258;-55
2023/10/19 09:48:45;;;;;;;7.00;5.30;;;;;;;16.82;73.65;64735.25;5068469;28;20295;-54
2023/10/19 09:51:12;;;;;;;6.85;5.65;;;;;;;17.07;72.60;64759.69;5072596;28;20205;-54
2023/10/19 09:53:39;;;;;;;8.52;5.53;;;;;;;17.44;70.87;64803.00;5080200;22;20229;-54
2023/10/19 09:56:08;;;;;;;7.43;5.55;;;;;;;18.07;69.94;64869.38;5072910;28;20205;-53
2023/10/19 09:58:44;;;;;;;10.90;6.03;;;;;;;18.20;67.97;64886.78;5071641;28;20247;-54
2023/10/19 10:01:13;;;;;;;6.80;5.75;;;;;;;18.26;65.81;64888.31;5072039;28;20192;-53
2023/10/19 10:03:45;;;;;;;8.10;6.25;;;;;;;17.32;67.97;64790.31;5072165;28;20209;-57
2023/10/19 10:06:14;;;;;;;7.55;6.00;;;;;;;18.40;65.00;64908.84;5071243;28;20193;-54
2023/10/19 10:08:42;;;;;;;8.23;6.45;;;;;;;19.05;62.78;64979.47;5072721;28;20228;-54
2023/10/19 10:11:27;;;;;;;8.27;6.05;;;;;;;19.43;64.55;65018.34;5072728;28;20208;-59
2023/10/19 10:13:56;;;;;;;10.60;5.93;;;;;;;19.65;60.39;65043.19;5072740;28;20204;-54
2023/10/19 10:16:27;;;;;;;7.18;5.82;;;;;;;19.63;61.58;65041.00;5072515;28;20212;-53
2023/10/19 10:19:01;;;;;;;9.60;6.57;;;;;;;19.73;60.81;65049.47;5072577;28;20361;-55
2023/10/19 10:21:30;;;;;;;7.07;6.35;;;;;;;19.60;60.89;65037.66;5072680;28;20219;-54
2023/10/19 10:24:03;;;;;;;9.63;6.78;;;;;;;19.67;59.52;65044.84;5072966;28;20236;-55
2023/10/19 10:26:53;;;;;;;9.50;6.72;;;;;;;20.00;61.84;65081.84;5072823;28;20197;-55
2023/10/19 10:29:23;;;;;;;8.48;6.90;;;;;;;19.81;58.82;65060.88;5072437;28;20658;-53
2023/10/19 10:31:50;;;;;;;8.38;5.75;;;;;;;20.36;58.73;65120.53;5071501;28;20608;-54
2023/10/19 10:34:36;;;;;;;9.57;6.32;;;;;;;20.77;56.25;65163.84;5072739;28;20258;-55
2023/10/19 10:37:10;;;;;;;8.60;6.15;;;;;;;20.84;57.19;65174.16;5072317;28;20209;-54
2023/10/19 10:39:37;;;;;;;8.23;6.60;;;;;;;21.09;58.10;65201.22;5071186;28;20205;-54
2023/10/19 10:42:08;;;;;;;8.48;6.70;;;;;;;21.39;59.40;65234.41;5072216;28;20211;-53
2023/10/19 10:44:45;;;;;;;7.22;6.40;;;;;;;20.84;55.70;65173.59;5072261;28;20635;-57
2023/10/19 10:47:16;;;;;;;8.15;6.63;;;;;;;21.37;56.65;65232.19;5072981;28;20238;-54
2023/10/19 10:49:58;;;;;;;9.82;7.05;;;;;;;20.17;57.29;65099.50;5072193;28;20205;-55
2023/10/19 10:52:32;;;;;;;8.88;6.18;;;;;;;20.59;56.54;65146.50;5072190;28;20304;-54
2023/10/19 10:55:11;;;;;;;8.00;6.10;;;;;;;21.04;56.02;65195.72;5072217;28;20204;-55
2023/10/19 10:57:38;;;;;;;10.75;6.15;;;;;;;21.07;54.82;65198.47;5072077;28;20299;-53
2023/10/19 11:00:07;;;;;;;6.85;5.95;;;;;;;21.21;53.37;65214.50;5072005;28;20195;-55
2023/10/19 11:02:35;;;;;;;7.35;5.75;;;;;;;21.12;55.24;65204.56;5072048;28;20211;-54
2023/10/19 11:05:01;;;;;;;7.65;6.00;;;;;;;21.27;52.64;65220.59;5072411;28;20234;-53
2023/10/19 11:07:27;;;;;;;11.43;6.28;;;;;;;21.31;54.18;65225.56;5072202;28;20430;-54
2023/10/19 11:09:52;;;;;;;9.02;6.20;;;;;;;21.33;53.85;65225.22;5072003;28;20627;-52
2023/10/19 11:12:19;;;;;;;6.47;5.38;;;;;;;20.60;53.67;65144.50;5078073;22;20239;-53
2023/10/19 11:14:59;;;;;;;6.90;5.55;;;;;;;20.75;56.19;65163.63;5070427;28;20205;-52
2023/10/19 11:17:32;;;;;;;7.95;5.72;;;;;;;21.02;55.71;65193.50;5071723;28;20224;-54
2023/10/19 11:19:58;;;;;;;9.88;6.15;;;;;;;21.11;54.97;65206.00;5070729;28;20201;-53
2023/10/19 11:22:26;;;;;;;6.38;5.22;;;;;;;21.28;55.84;65219.69;5070692;28;20248;-52
2023/10/19 11:24:54;;;;;;;6.38;5.68;;;;;;;21.23;54.65;65211.06;5071982;28;20712;-55
2023/10/19 11:27:26;;;;;;;9.45;6.53;;;;;;;21.36;53.70;65231.09;5071619;28;20256;-53
2023/10/19 11:29:59;;;;;;;8.07;6.03;;;;;;;20.96;54.25;65186.28;5071863;28;20193;-53
2023/10/19 11:32:25;;;;;;;7.63;6.47;;;;;;;20.47;56.84;65132.69;5070627;28;20277;-52
2023/10/19 11:34:53;;;;;;;9.10;6.93;;;;;;;20.58;56.00;65145.38;5071788;28;20197;-52
2023/10/19 11:37:19;;;;;;;6.47;5.63;;;;;;;20.82;55.72;65171.38;5070291;28;20221;-52
2023/10/19 11:39:45;;;;;;;9.40;6.38;;;;;;;20.50;56.48;65133.97;5070939;28;20269;-52
2023/10/19 11:42:12;;;;;;;6.47;5.63;;;;;;;20.79;55.58;65168.59;5071184;28;20244;-52
2023/10/19 11:44:37;;;;;;;7.82;6.13;;;;;;;21.14;54.50;65209.34;5071436;28;20230;-52
2023/10/19 11:47:04;;;;;;;8.07;6.22;;;;;;;21.39;53.76;65233.88;5071593;28;20225;-52
2023/10/19 11:49:29;;;;;;;8.25;6.70;;;;;;;20.89;54.28;65179.09;5071419;28;20259;-57
2023/10/19 11:51:55;;;;;;;10.18;6.05;;;;;;;21.16;54.29;65208.97;5071115;28;20350;-53
2023/10/19 11:54:20;;;;;;;12.50;6.90;;;;;;;21.14;53.28;65206.22;5071108;28;20204;-55
2023/10/19 11:56:46;;;;;;;10.60;7.38;;;;;;;20.51;55.64;65139.66;5071183;28;20553;-53